sensor_id;sensor_type;location;lat;lon;timestamp;P1;durP1;ratioP1;P2;durP2;ratioP2
22184;SDS011;11258;52.516;13.318;2022-11-30T00:00:16;68.33;;;38.90;;
22184;SDS011;11258;52.516;13.318;2022-11-30T00:02:42;73.97;;;38.40;;
22184;SDS011;11258;52.516;13.318;2022-11-30T00:05:08;72.27;;;37.33;;
22184;SDS011;11258;52.516;13.318;2022-11-30T00:07:34;70.87;;;38.90;;
22184;SDS011;11258;52.516;13.318;2022-11-30T00:10:00;70.37;;;37.30;;
22184;SDS011;11258;52.516;13.318;2022-11-30T00:12:25;72.23;;;38.90;;
22184;SDS011;11258;52.516;13.318;2022-11-30T00:14:52;76.40;;;38.97;;
22184;SDS011;11258;52.516;13.318;2022-11-30T00:17:18;81.63;;;39.97;;
22184;SDS011;11258;52.516;13.318;2022-11-30T00:19:44;70.70;;;38.70;;
22184;SDS011;11258;52.516;13.318;2022-11-30T00:22:09;68.57;;;35.57;;
22184;SDS011;11258;52.516;13.318;2022-11-30T00:24:35;71.47;;;36.43;;
22184;SDS011;11258;52.516;13.318;2022-11-30T00:27:01;73.07;;;37.70;;
22184;SDS011;11258;52.516;13.318;2022-11-30T00:29:26;68.90;;;36.03;;
22184;SDS011;11258;52.516;13.318;2022-11-30T00:31:52;69.67;;;37.23;;
22184;SDS011;11258;52.516;13.318;2022-11-30T00:34:17;68.43;;;37.50;;
22184;SDS011;11258;52.516;13.318;2022-11-30T00:36:43;70.47;;;38.23;;
22184;SDS011;11258;52.516;13.318;2022-11-30T00:39:09;67.50;;;36.57;;
22184;SDS011;11258;52.516;13.318;2022-11-30T00:41:34;69.13;;;37.20;;
22184;SDS011;11258;52.516;13.318;2022-11-30T00:44:00;70.23;;;37.60;;
22184;SDS011;11258;52.516;13.318;2022-11-30T00:46:25;67.33;;;37.70;;
22184;SDS011;11258;52.516;13.318;2022-11-30T00:48:51;70.73;;;38.77;;
22184;SDS011;11258;52.516;13.318;2022-11-30T00:51:17;70.00;;;35.97;;
22184;SDS011;11258;52.516;13.318;2022-11-30T00:53:43;76.93;;;38.80;;
22184;SDS011;11258;52.516;13.318;2022-11-30T00:56:09;77.73;;;39.67;;
22184;SDS011;11258;52.516;13.318;2022-11-30T00:58:35;68.63;;;37.07;;
22184;SDS011;11258;52.516;13.318;2022-11-30T01:01:00;69.10;;;37.10;;
22184;SDS011;11258;52.516;13.318;2022-11-30T01:03:26;71.10;;;36.90;;
22184;SDS011;11258;52.516;13.318;2022-11-30T01:05:52;69.67;;;38.20;;
22184;SDS011;11258;52.516;13.318;2022-11-30T01:08:17;74.13;;;38.17;;
22184;SDS011;11258;52.516;13.318;2022-11-30T01:10:43;75.00;;;36.70;;
22184;SDS011;11258;52.516;13.318;2022-11-30T01:13:12;72.53;;;38.73;;
22184;SDS011;11258;52.516;13.318;2022-11-30T01:15:39;71.23;;;37.00;;
22184;SDS011;11258;52.516;13.318;2022-11-30T01:18:06;72.93;;;36.13;;
22184;SDS011;11258;52.516;13.318;2022-11-30T01:20:32;76.33;;;38.53;;
22184;SDS011;11258;52.516;13.318;2022-11-30T01:22:57;73.50;;;38.30;;
22184;SDS011;11258;52.516;13.318;2022-11-30T01:25:23;76.40;;;39.43;;
22184;SDS011;11258;52.516;13.318;2022-11-30T01:27:49;69.93;;;37.10;;
22184;SDS011;11258;52.516;13.318;2022-11-30T01:30:15;78.60;;;40.40;;
22184;SDS011;11258;52.516;13.318;2022-11-30T01:32:41;71.37;;;38.53;;
22184;SDS011;11258;52.516;13.318;2022-11-30T01:35:07;72.13;;;37.60;;
22184;SDS011;11258;52.516;13.318;2022-11-30T01:37:33;79.83;;;39.80;;
22184;SDS011;11258;52.516;13.318;2022-11-30T01:39:59;71.67;;;39.23;;
22184;SDS011;11258;52.516;13.318;2022-11-30T01:42:24;76.33;;;40.33;;
22184;SDS011;11258;52.516;13.318;2022-11-30T01:47:16;70.67;;;38.93;;
22184;SDS011;11258;52.516;13.318;2022-11-30T01:49:45;73.10;;;38.77;;
22184;SDS011;11258;52.516;13.318;2022-11-30T01:52:19;71.67;;;38.77;;
22184;SDS011;11258;52.516;13.318;2022-11-30T01:55:02;72.87;;;38.27;;
22184;SDS011;11258;52.516;13.318;2022-11-30T01:57:41;70.43;;;39.30;;
22184;SDS011;11258;52.516;13.318;2022-11-30T02:00:12;75.00;;;39.43;;
22184;SDS011;11258;52.516;13.318;2022-11-30T02:02:42;81.43;;;42.37;;
22184;SDS011;11258;52.516;13.318;2022-11-30T02:05:28;69.20;;;38.57;;
22184;SDS011;11258;52.516;13.318;2022-11-30T02:07:54;76.17;;;39.83;;
22184;SDS011;11258;52.516;13.318;2022-11-30T02:10:29;73.50;;;39.53;;
22184;SDS011;11258;52.516;13.318;2022-11-30T02:13:04;78.23;;;39.60;;
22184;SDS011;11258;52.516;13.318;2022-11-30T02:21:31;72.00;;;37.60;;
22184;SDS011;11258;52.516;13.318;2022-11-30T02:27:09;79.10;;;41.30;;
22184;SDS011;11258;52.516;13.318;2022-11-30T02:29:42;72.73;;;40.03;;
22184;SDS011;11258;52.516;13.318;2022-11-30T02:32:19;73.10;;;40.60;;
22184;SDS011;11258;52.516;13.318;2022-11-30T02:35:26;76.50;;;40.17;;
22184;SDS011;11258;52.516;13.318;2022-11-30T02:37:58;75.77;;;39.83;;
22184;SDS011;11258;52.516;13.318;2022-11-30T02:40:26;77.00;;;39.87;;
22184;SDS011;11258;52.516;13.318;2022-11-30T02:42:51;71.90;;;39.57;;
22184;SDS011;11258;52.516;13.318;2022-11-30T02:45:21;78.17;;;41.53;;
22184;SDS011;11258;52.516;13.318;2022-11-30T02:48:07;76.53;;;40.87;;
22184;SDS011;11258;52.516;13.318;2022-11-30T02:50:40;84.63;;;42.73;;
22184;SDS011;11258;52.516;13.318;2022-11-30T02:53:11;77.10;;;40.27;;
22184;SDS011;11258;52.516;13.318;2022-11-30T02:55:37;75.43;;;39.63;;
22184;SDS011;11258;52.516;13.318;2022-11-30T02:58:03;70.60;;;38.53;;
22184;SDS011;11258;52.516;13.318;2022-11-30T03:00:29;77.37;;;40.67;;
22184;SDS011;11258;52.516;13.318;2022-11-30T03:02:55;77.57;;;40.73;;
22184;SDS011;11258;52.516;13.318;2022-11-30T03:05:21;79.00;;;40.37;;
22184;SDS011;11258;52.516;13.318;2022-11-30T03:07:46;69.23;;;37.83;;
22184;SDS011;11258;52.516;13.318;2022-11-30T03:10:12;71.63;;;40.00;;
22184;SDS011;11258;52.516;13.318;2022-11-30T03:12:38;75.47;;;39.63;;
22184;SDS011;11258;52.516;13.318;2022-11-30T03:15:04;71.17;;;38.57;;
22184;SDS011;11258;52.516;13.318;2022-11-30T03:17:30;75.77;;;39.23;;
22184;SDS011;11258;52.516;13.318;2022-11-30T03:19:55;81.50;;;39.60;;
22184;SDS011;11258;52.516;13.318;2022-11-30T03:22:21;72.87;;;39.07;;
22184;SDS011;11258;52.516;13.318;2022-11-30T03:24:47;73.13;;;39.20;;
22184;SDS011;11258;52.516;13.318;2022-11-30T03:27:12;72.73;;;38.93;;
22184;SDS011;11258;52.516;13.318;2022-11-30T03:29:38;78.77;;;39.00;;
22184;SDS011;11258;52.516;13.318;2022-11-30T03:32:04;72.80;;;39.60;;
22184;SDS011;11258;52.516;13.318;2022-11-30T03:34:30;75.90;;;39.67;;
22184;SDS011;11258;52.516;13.318;2022-11-30T03:36:55;70.70;;;37.83;;
22184;SDS011;11258;52.516;13.318;2022-11-30T03:39:21;67.77;;;37.27;;
22184;SDS011;11258;52.516;13.318;2022-11-30T03:41:48;75.60;;;38.00;;
22184;SDS011;11258;52.516;13.318;2022-11-30T03:44:14;75.53;;;37.93;;
22184;SDS011;11258;52.516;13.318;2022-11-30T03:46:40;67.20;;;36.77;;
22184;SDS011;11258;52.516;13.318;2022-11-30T03:49:06;74.80;;;39.57;;
22184;SDS011;11258;52.516;13.318;2022-11-30T03:51:32;70.00;;;38.47;;
22184;SDS011;11258;52.516;13.318;2022-11-30T03:53:57;69.50;;;37.57;;
22184;SDS011;11258;52.516;13.318;2022-11-30T03:56:23;67.87;;;37.50;;
22184;SDS011;11258;52.516;13.318;2022-11-30T03:58:49;74.07;;;38.00;;
22184;SDS011;11258;52.516;13.318;2022-11-30T04:01:16;69.20;;;37.23;;
22184;SDS011;11258;52.516;13.318;2022-11-30T04:03:46;67.30;;;37.20;;
22184;SDS011;11258;52.516;13.318;2022-11-30T04:06:12;76.37;;;39.23;;
22184;SDS011;11258;52.516;13.318;2022-11-30T04:08:38;72.97;;;39.47;;
22184;SDS011;11258;52.516;13.318;2022-11-30T04:11:04;70.17;;;36.77;;
22184;SDS011;11258;52.516;13.318;2022-11-30T04:13:31;78.53;;;39.07;;
22184;SDS011;11258;52.516;13.318;2022-11-30T04:15:57;72.27;;;38.30;;
22184;SDS011;11258;52.516;13.318;2022-11-30T04:18:24;73.73;;;38.53;;
22184;SDS011;11258;52.516;13.318;2022-11-30T04:20:54;76.53;;;40.10;;
22184;SDS011;11258;52.516;13.318;2022-11-30T04:23:21;77.67;;;40.03;;
22184;SDS011;11258;52.516;13.318;2022-11-30T04:25:48;72.07;;;38.27;;
22184;SDS011;11258;52.516;13.318;2022-11-30T04:28:15;71.90;;;36.40;;
22184;SDS011;11258;52.516;13.318;2022-11-30T04:30:41;73.67;;;38.90;;
22184;SDS011;11258;52.516;13.318;2022-11-30T04:33:07;78.43;;;40.20;;
22184;SDS011;11258;52.516;13.318;2022-11-30T04:35:33;76.80;;;39.73;;
22184;SDS011;11258;52.516;13.318;2022-11-30T04:38:04;71.93;;;38.10;;
22184;SDS011;11258;52.516;13.318;2022-11-30T04:40:29;77.70;;;39.87;;
22184;SDS011;11258;52.516;13.318;2022-11-30T04:42:55;73.90;;;39.07;;
22184;SDS011;11258;52.516;13.318;2022-11-30T04:45:20;71.97;;;37.10;;
22184;SDS011;11258;52.516;13.318;2022-11-30T04:47:46;74.77;;;38.67;;
22184;SDS011;11258;52.516;13.318;2022-11-30T04:50:12;73.40;;;37.63;;
22184;SDS011;11258;52.516;13.318;2022-11-30T04:52:37;77.70;;;39.37;;
22184;SDS011;11258;52.516;13.318;2022-11-30T04:55:03;70.53;;;37.47;;
22184;SDS011;11258;52.516;13.318;2022-11-30T04:57:29;77.43;;;39.87;;
22184;SDS011;11258;52.516;13.318;2022-11-30T04:59:55;69.57;;;37.70;;
22184;SDS011;11258;52.516;13.318;2022-11-30T05:02:21;81.38;;;48.95;;
22184;SDS011;11258;52.516;13.318;2022-11-30T05:04:46;70.10;;;39.70;;
22184;SDS011;11258;52.516;13.318;2022-11-30T05:07:12;69.83;;;37.90;;
22184;SDS011;11258;52.516;13.318;2022-11-30T05:09:38;73.47;;;38.87;;
22184;SDS011;11258;52.516;13.318;2022-11-30T05:12:03;76.70;;;38.90;;
22184;SDS011;11258;52.516;13.318;2022-11-30T05:14:29;75.03;;;39.27;;
22184;SDS011;11258;52.516;13.318;2022-11-30T05:16:55;75.10;;;38.20;;
22184;SDS011;11258;52.516;13.318;2022-11-30T05:19:20;79.17;;;39.87;;
22184;SDS011;11258;52.516;13.318;2022-11-30T05:21:46;72.20;;;37.33;;
22184;SDS011;11258;52.516;13.318;2022-11-30T05:24:11;74.87;;;37.10;;
22184;SDS011;11258;52.516;13.318;2022-11-30T05:26:37;75.63;;;38.83;;
22184;SDS011;11258;52.516;13.318;2022-11-30T05:29:03;71.67;;;37.60;;
22184;SDS011;11258;52.516;13.318;2022-11-30T05:31:30;71.13;;;40.00;;
22184;SDS011;11258;52.516;13.318;2022-11-30T05:33:56;70.20;;;37.00;;
22184;SDS011;11258;52.516;13.318;2022-11-30T05:36:22;66.97;;;35.63;;
22184;SDS011;11258;52.516;13.318;2022-11-30T05:38:47;73.73;;;39.50;;
22184;SDS011;11258;52.516;13.318;2022-11-30T05:41:13;76.20;;;39.23;;
22184;SDS011;11258;52.516;13.318;2022-11-30T05:43:39;71.07;;;37.73;;
22184;SDS011;11258;52.516;13.318;2022-11-30T05:46:05;68.67;;;36.33;;
22184;SDS011;11258;52.516;13.318;2022-11-30T05:48:32;69.37;;;36.83;;
22184;SDS011;11258;52.516;13.318;2022-11-30T05:53:34;78.77;;;39.80;;
22184;SDS011;11258;52.516;13.318;2022-11-30T05:56:04;71.77;;;37.07;;
22184;SDS011;11258;52.516;13.318;2022-11-30T05:58:32;78.50;;;40.60;;
22184;SDS011;11258;52.516;13.318;2022-11-30T06:00:57;70.43;;;37.87;;
22184;SDS011;11258;52.516;13.318;2022-11-30T06:03:23;70.33;;;37.93;;
22184;SDS011;11258;52.516;13.318;2022-11-30T06:05:50;73.00;;;37.83;;
22184;SDS011;11258;52.516;13.318;2022-11-30T06:08:16;75.50;;;38.83;;
22184;SDS011;11258;52.516;13.318;2022-11-30T06:10:42;75.17;;;38.53;;
22184;SDS011;11258;52.516;13.318;2022-11-30T06:13:07;76.97;;;39.83;;
22184;SDS011;11258;52.516;13.318;2022-11-30T06:15:35;68.00;;;37.27;;
22184;SDS011;11258;52.516;13.318;2022-11-30T06:18:01;69.77;;;35.97;;
22184;SDS011;11258;52.516;13.318;2022-11-30T06:20:27;70.50;;;36.73;;
22184;SDS011;11258;52.516;13.318;2022-11-30T06:22:53;68.73;;;36.13;;
22184;SDS011;11258;52.516;13.318;2022-11-30T06:25:19;68.87;;;38.27;;
22184;SDS011;11258;52.516;13.318;2022-11-30T06:27:45;71.33;;;38.90;;
22184;SDS011;11258;52.516;13.318;2022-11-30T06:30:10;72.07;;;37.27;;
22184;SDS011;11258;52.516;13.318;2022-11-30T06:32:36;72.33;;;38.60;;
22184;SDS011;11258;52.516;13.318;2022-11-30T06:35:02;66.77;;;37.00;;
22184;SDS011;11258;52.516;13.318;2022-11-30T06:37:28;63.90;;;35.67;;
22184;SDS011;11258;52.516;13.318;2022-11-30T06:39:54;71.57;;;37.10;;
22184;SDS011;11258;52.516;13.318;2022-11-30T06:42:19;70.23;;;38.10;;
22184;SDS011;11258;52.516;13.318;2022-11-30T06:44:45;64.03;;;36.07;;
22184;SDS011;11258;52.516;13.318;2022-11-30T06:47:12;72.23;;;37.77;;
22184;SDS011;11258;52.516;13.318;2022-11-30T06:49:38;67.53;;;36.03;;
22184;SDS011;11258;52.516;13.318;2022-11-30T06:52:03;72.33;;;36.17;;
22184;SDS011;11258;52.516;13.318;2022-11-30T06:54:29;69.17;;;35.70;;
22184;SDS011;11258;52.516;13.318;2022-11-30T06:56:54;65.53;;;34.87;;
22184;SDS011;11258;52.516;13.318;2022-11-30T06:59:21;72.70;;;36.47;;
22184;SDS011;11258;52.516;13.318;2022-11-30T07:01:47;62.07;;;35.23;;
22184;SDS011;11258;52.516;13.318;2022-11-30T07:04:13;67.10;;;36.93;;
22184;SDS011;11258;52.516;13.318;2022-11-30T07:06:38;76.77;;;37.50;;
22184;SDS011;11258;52.516;13.318;2022-11-30T07:09:05;68.70;;;35.50;;
22184;SDS011;11258;52.516;13.318;2022-11-30T07:11:30;68.87;;;35.47;;
22184;SDS011;11258;52.516;13.318;2022-11-30T07:13:57;68.97;;;37.33;;
22184;SDS011;11258;52.516;13.318;2022-11-30T07:16:22;65.77;;;35.30;;
22184;SDS011;11258;52.516;13.318;2022-11-30T07:18:48;64.63;;;36.03;;
22184;SDS011;11258;52.516;13.318;2022-11-30T07:21:14;65.30;;;35.20;;
22184;SDS011;11258;52.516;13.318;2022-11-30T07:23:39;70.53;;;37.50;;
22184;SDS011;11258;52.516;13.318;2022-11-30T07:26:24;64.50;;;34.40;;
22184;SDS011;11258;52.516;13.318;2022-11-30T07:28:50;66.77;;;34.83;;
22184;SDS011;11258;52.516;13.318;2022-11-30T07:33:55;62.83;;;33.60;;
22184;SDS011;11258;52.516;13.318;2022-11-30T07:36:21;66.00;;;34.07;;
22184;SDS011;11258;52.516;13.318;2022-11-30T07:38:49;66.83;;;34.37;;
22184;SDS011;11258;52.516;13.318;2022-11-30T07:41:15;68.17;;;35.33;;
22184;SDS011;11258;52.516;13.318;2022-11-30T07:43:40;68.83;;;36.33;;
22184;SDS011;11258;52.516;13.318;2022-11-30T07:46:06;60.50;;;34.00;;
22184;SDS011;11258;52.516;13.318;2022-11-30T07:48:33;68.10;;;35.30;;
22184;SDS011;11258;52.516;13.318;2022-11-30T07:51:03;60.27;;;33.00;;
22184;SDS011;11258;52.516;13.318;2022-11-30T07:53:30;60.90;;;33.50;;
22184;SDS011;11258;52.516;13.318;2022-11-30T07:56:05;64.77;;;32.53;;
22184;SDS011;11258;52.516;13.318;2022-11-30T07:58:33;62.73;;;33.47;;
22184;SDS011;11258;52.516;13.318;2022-11-30T08:01:06;63.13;;;33.33;;
22184;SDS011;11258;52.516;13.318;2022-11-30T08:03:36;66.73;;;34.30;;
22184;SDS011;11258;52.516;13.318;2022-11-30T08:06:03;65.63;;;35.00;;
22184;SDS011;11258;52.516;13.318;2022-11-30T08:08:35;69.33;;;35.10;;
22184;SDS011;11258;52.516;13.318;2022-11-30T08:11:04;61.73;;;33.27;;
22184;SDS011;11258;52.516;13.318;2022-11-30T08:13:31;65.67;;;34.87;;
22184;SDS011;11258;52.516;13.318;2022-11-30T08:16:04;62.43;;;33.73;;
22184;SDS011;11258;52.516;13.318;2022-11-30T08:18:31;62.93;;;33.50;;
22184;SDS011;11258;52.516;13.318;2022-11-30T08:20:58;60.10;;;34.50;;
22184;SDS011;11258;52.516;13.318;2022-11-30T08:23:26;59.03;;;31.80;;
22184;SDS011;11258;52.516;13.318;2022-11-30T08:25:52;63.63;;;33.77;;
22184;SDS011;11258;52.516;13.318;2022-11-30T08:28:18;61.53;;;33.47;;
22184;SDS011;11258;52.516;13.318;2022-11-30T08:30:44;60.93;;;33.07;;
22184;SDS011;11258;52.516;13.318;2022-11-30T08:33:10;65.33;;;35.73;;
22184;SDS011;11258;52.516;13.318;2022-11-30T08:35:35;63.47;;;33.60;;
22184;SDS011;11258;52.516;13.318;2022-11-30T08:38:01;69.37;;;34.13;;
22184;SDS011;11258;52.516;13.318;2022-11-30T08:40:26;60.37;;;33.07;;
22184;SDS011;11258;52.516;13.318;2022-11-30T08:42:52;58.60;;;32.43;;
22184;SDS011;11258;52.516;13.318;2022-11-30T08:45:17;61.10;;;33.53;;
22184;SDS011;11258;52.516;13.318;2022-11-30T08:47:43;60.10;;;32.57;;
22184;SDS011;11258;52.516;13.318;2022-11-30T08:50:09;62.13;;;34.60;;
22184;SDS011;11258;52.516;13.318;2022-11-30T08:52:34;66.63;;;34.77;;
22184;SDS011;11258;52.516;13.318;2022-11-30T08:55:00;63.60;;;33.97;;
22184;SDS011;11258;52.516;13.318;2022-11-30T08:57:25;64.37;;;33.80;;
22184;SDS011;11258;52.516;13.318;2022-11-30T08:59:51;63.67;;;33.87;;
22184;SDS011;11258;52.516;13.318;2022-11-30T09:02:17;61.90;;;33.90;;
22184;SDS011;11258;52.516;13.318;2022-11-30T09:04:44;61.97;;;33.70;;
22184;SDS011;11258;52.516;13.318;2022-11-30T09:07:11;60.50;;;33.93;;
22184;SDS011;11258;52.516;13.318;2022-11-30T09:09:37;61.43;;;32.97;;
22184;SDS011;11258;52.516;13.318;2022-11-30T09:12:03;65.30;;;34.30;;
22184;SDS011;11258;52.516;13.318;2022-11-30T09:14:29;63.70;;;32.13;;
22184;SDS011;11258;52.516;13.318;2022-11-30T09:16:55;68.47;;;34.57;;
22184;SDS011;11258;52.516;13.318;2022-11-30T09:19:20;63.67;;;33.70;;
22184;SDS011;11258;52.516;13.318;2022-11-30T09:21:46;59.60;;;33.33;;
22184;SDS011;11258;52.516;13.318;2022-11-30T09:24:12;58.93;;;32.80;;
22184;SDS011;11258;52.516;13.318;2022-11-30T09:26:37;62.73;;;34.40;;
22184;SDS011;11258;52.516;13.318;2022-11-30T09:29:03;60.97;;;32.27;;
22184;SDS011;11258;52.516;13.318;2022-11-30T09:31:29;59.30;;;31.80;;
22184;SDS011;11258;52.516;13.318;2022-11-30T09:33:55;54.60;;;31.57;;
22184;SDS011;11258;52.516;13.318;2022-11-30T09:36:22;64.23;;;32.40;;
22184;SDS011;11258;52.516;13.318;2022-11-30T09:38:51;62.50;;;34.13;;
22184;SDS011;11258;52.516;13.318;2022-11-30T09:41:37;57.67;;;32.50;;
22184;SDS011;11258;52.516;13.318;2022-11-30T09:49:59;56.00;;;31.87;;
22184;SDS011;11258;52.516;13.318;2022-11-30T09:52:35;54.60;;;28.93;;
22184;SDS011;11258;52.516;13.318;2022-11-30T09:55:09;61.73;;;31.37;;
22184;SDS011;11258;52.516;13.318;2022-11-30T10:00:20;60.77;;;30.87;;
22184;SDS011;11258;52.516;13.318;2022-11-30T10:02:47;55.00;;;31.37;;
22184;SDS011;11258;52.516;13.318;2022-11-30T10:08:18;59.00;;;33.33;;
22184;SDS011;11258;52.516;13.318;2022-11-30T10:11:48;57.23;;;32.17;;
22184;SDS011;11258;52.516;13.318;2022-11-30T10:22:10;55.20;;;30.87;;
22184;SDS011;11258;52.516;13.318;2022-11-30T10:30:13;56.30;;;32.43;;
22184;SDS011;11258;52.516;13.318;2022-11-30T10:32:42;58.20;;;33.70;;
22184;SDS011;11258;52.516;13.318;2022-11-30T10:35:16;57.60;;;31.50;;
22184;SDS011;11258;52.516;13.318;2022-11-30T10:37:42;58.77;;;32.13;;
22184;SDS011;11258;52.516;13.318;2022-11-30T10:40:13;54.60;;;31.83;;
22184;SDS011;11258;52.516;13.318;2022-11-30T10:45:43;65.30;;;32.70;;
22184;SDS011;11258;52.516;13.318;2022-11-30T10:48:15;60.67;;;33.70;;
22184;SDS011;11258;52.516;13.318;2022-11-30T10:50:42;59.53;;;30.80;;
22184;SDS011;11258;52.516;13.318;2022-11-30T10:53:08;55.97;;;32.07;;
22184;SDS011;11258;52.516;13.318;2022-11-30T10:55:37;57.20;;;31.87;;
22184;SDS011;11258;52.516;13.318;2022-11-30T11:00:46;66.50;;;34.33;;
22184;SDS011;11258;52.516;13.318;2022-11-30T11:03:23;56.40;;;31.27;;
22184;SDS011;11258;52.516;13.318;2022-11-30T11:06:35;58.17;;;31.97;;
22184;SDS011;11258;52.516;13.318;2022-11-30T11:08:47;59.20;;;31.97;;
22184;SDS011;11258;52.516;13.318;2022-11-30T11:11:30;60.00;;;34.67;;
22184;SDS011;11258;52.516;13.318;2022-11-30T11:14:16;58.70;;;33.73;;
22184;SDS011;11258;52.516;13.318;2022-11-30T11:16:51;56.73;;;32.17;;
22184;SDS011;11258;52.516;13.318;2022-11-30T11:21:54;59.70;;;33.83;;
22184;SDS011;11258;52.516;13.318;2022-11-30T11:24:22;60.37;;;32.77;;
22184;SDS011;11258;52.516;13.318;2022-11-30T11:26:51;58.77;;;33.60;;
22184;SDS011;11258;52.516;13.318;2022-11-30T11:29:22;59.97;;;34.80;;
22184;SDS011;11258;52.516;13.318;2022-11-30T11:32:04;61.80;;;34.73;;
22184;SDS011;11258;52.516;13.318;2022-11-30T11:34:33;59.57;;;32.73;;
22184;SDS011;11258;52.516;13.318;2022-11-30T11:37:11;69.50;;;34.57;;
22184;SDS011;11258;52.516;13.318;2022-11-30T11:39:54;59.93;;;34.43;;
22184;SDS011;11258;52.516;13.318;2022-11-30T11:42:30;61.17;;;34.20;;
22184;SDS011;11258;52.516;13.318;2022-11-30T11:45:29;60.50;;;32.73;;
22184;SDS011;11258;52.516;13.318;2022-11-30T11:48:04;62.97;;;33.27;;
22184;SDS011;11258;52.516;13.318;2022-11-30T11:50:44;64.37;;;35.13;;
22184;SDS011;11258;52.516;13.318;2022-11-30T11:54:11;60.47;;;35.27;;
22184;SDS011;11258;52.516;13.318;2022-11-30T11:58:57;60.90;;;34.33;;
22184;SDS011;11258;52.516;13.318;2022-11-30T12:01:35;60.63;;;34.73;;
22184;SDS011;11258;52.516;13.318;2022-11-30T12:04:41;64.77;;;35.80;;
22184;SDS011;11258;52.516;13.318;2022-11-30T12:07:23;65.70;;;36.00;;
22184;SDS011;11258;52.516;13.318;2022-11-30T12:10:24;69.93;;;35.27;;
22184;SDS011;11258;52.516;13.318;2022-11-30T12:13:14;63.77;;;33.80;;
22184;SDS011;11258;52.516;13.318;2022-11-30T12:30:00;65.67;;;35.57;;
22184;SDS011;11258;52.516;13.318;2022-11-30T12:38:17;63.30;;;34.30;;
22184;SDS011;11258;52.516;13.318;2022-11-30T12:44:14;66.33;;;36.10;;
22184;SDS011;11258;52.516;13.318;2022-11-30T12:51:53;72.63;;;36.67;;
22184;SDS011;11258;52.516;13.318;2022-11-30T12:54:27;67.57;;;37.63;;
22184;SDS011;11258;52.516;13.318;2022-11-30T13:00:12;70.40;;;38.40;;
22184;SDS011;11258;52.516;13.318;2022-11-30T13:11:02;84.27;;;45.03;;
22184;SDS011;11258;52.516;13.318;2022-11-30T13:13:32;86.57;;;43.87;;
22184;SDS011;11258;52.516;13.318;2022-11-30T13:16:00;81.87;;;42.43;;
22184;SDS011;11258;52.516;13.318;2022-11-30T13:18:30;82.23;;;43.43;;
22184;SDS011;11258;52.516;13.318;2022-11-30T13:23:30;90.63;;;47.00;;
22184;SDS011;11258;52.516;13.318;2022-11-30T13:26:15;99.40;;;52.40;;
22184;SDS011;11258;52.516;13.318;2022-11-30T13:34:00;89.67;;;45.57;;
22184;SDS011;11258;52.516;13.318;2022-11-30T13:36:41;78.70;;;42.57;;
22184;SDS011;11258;52.516;13.318;2022-11-30T13:41:49;84.73;;;42.90;;
22184;SDS011;11258;52.516;13.318;2022-11-30T13:44:36;77.53;;;41.67;;
22184;SDS011;11258;52.516;13.318;2022-11-30T13:47:05;82.43;;;40.33;;
22184;SDS011;11258;52.516;13.318;2022-11-30T13:49:57;84.10;;;42.37;;
22184;SDS011;11258;52.516;13.318;2022-11-30T14:02:54;86.10;;;41.77;;
22184;SDS011;11258;52.516;13.318;2022-11-30T14:05:42;85.00;;;41.10;;
22184;SDS011;11258;52.516;13.318;2022-11-30T14:08:16;81.50;;;43.53;;
22184;SDS011;11258;52.516;13.318;2022-11-30T14:11:34;89.50;;;43.80;;
22184;SDS011;11258;52.516;13.318;2022-11-30T14:13:42;87.30;;;42.37;;
22184;SDS011;11258;52.516;13.318;2022-11-30T14:16:22;81.17;;;42.00;;
22184;SDS011;11258;52.516;13.318;2022-11-30T14:18:51;87.67;;;42.47;;
22184;SDS011;11258;52.516;13.318;2022-11-30T14:21:20;88.97;;;41.90;;
22184;SDS011;11258;52.516;13.318;2022-11-30T14:24:31;90.03;;;42.43;;
22184;SDS011;11258;52.516;13.318;2022-11-30T14:26:45;93.23;;;43.93;;
22184;SDS011;11258;52.516;13.318;2022-11-30T14:29:15;91.87;;;44.73;;
22184;SDS011;11258;52.516;13.318;2022-11-30T14:32:11;92.80;;;43.40;;
22184;SDS011;11258;52.516;13.318;2022-11-30T14:34:44;91.97;;;44.17;;
22184;SDS011;11258;52.516;13.318;2022-11-30T14:37:21;88.43;;;41.90;;
22184;SDS011;11258;52.516;13.318;2022-11-30T14:39:48;105.43;;;46.33;;
22184;SDS011;11258;52.516;13.318;2022-11-30T14:42:25;98.70;;;46.03;;
22184;SDS011;11258;52.516;13.318;2022-11-30T14:44:52;106.80;;;45.67;;
22184;SDS011;11258;52.516;13.318;2022-11-30T14:49:55;98.30;;;44.60;;
22184;SDS011;11258;52.516;13.318;2022-11-30T15:01:25;105.57;;;49.37;;
22184;SDS011;11258;52.516;13.318;2022-11-30T15:03:54;104.27;;;44.50;;
22184;SDS011;11258;52.516;13.318;2022-11-30T15:06:30;119.60;;;50.30;;
22184;SDS011;11258;52.516;13.318;2022-11-30T15:08:58;115.27;;;49.23;;
22184;SDS011;11258;52.516;13.318;2022-11-30T15:11:25;108.63;;;48.03;;
22184;SDS011;11258;52.516;13.318;2022-11-30T15:13:52;116.10;;;48.53;;
22184;SDS011;11258;52.516;13.318;2022-11-30T15:16:31;113.63;;;47.53;;
22184;SDS011;11258;52.516;13.318;2022-11-30T15:18:57;109.07;;;46.87;;
22184;SDS011;11258;52.516;13.318;2022-11-30T15:21:24;110.20;;;48.67;;
22184;SDS011;11258;52.516;13.318;2022-11-30T15:23:53;105.53;;;46.20;;
22184;SDS011;11258;52.516;13.318;2022-11-30T15:26:24;108.70;;;45.27;;
22184;SDS011;11258;52.516;13.318;2022-11-30T15:28:56;106.07;;;44.60;;
22184;SDS011;11258;52.516;13.318;2022-11-30T15:31:31;106.63;;;44.23;;
22184;SDS011;11258;52.516;13.318;2022-11-30T15:33:59;104.60;;;42.50;;
22184;SDS011;11258;52.516;13.318;2022-11-30T15:36:25;113.83;;;44.10;;
22184;SDS011;11258;52.516;13.318;2022-11-30T15:39:03;110.03;;;43.87;;
22184;SDS011;11258;52.516;13.318;2022-11-30T15:41:31;112.87;;;44.80;;
22184;SDS011;11258;52.516;13.318;2022-11-30T15:43:58;105.47;;;40.87;;
22184;SDS011;11258;52.516;13.318;2022-11-30T15:46:27;109.40;;;43.03;;
22184;SDS011;11258;52.516;13.318;2022-11-30T15:51:37;103.43;;;41.67;;
22184;SDS011;11258;52.516;13.318;2022-11-30T15:54:04;105.77;;;42.63;;
22184;SDS011;11258;52.516;13.318;2022-11-30T15:56:30;109.27;;;43.40;;
22184;SDS011;11258;52.516;13.318;2022-11-30T16:07:32;113.43;;;43.97;;
22184;SDS011;11258;52.516;13.318;2022-11-30T16:12:37;117.77;;;43.87;;
22184;SDS011;11258;52.516;13.318;2022-11-30T16:15:09;108.37;;;42.20;;
22184;SDS011;11258;52.516;13.318;2022-11-30T16:17:46;121.60;;;43.67;;
22184;SDS011;11258;52.516;13.318;2022-11-30T16:20:12;106.87;;;43.50;;
22184;SDS011;11258;52.516;13.318;2022-11-30T16:22:44;104.00;;;41.30;;
22184;SDS011;11258;52.516;13.318;2022-11-30T16:25:15;105.63;;;40.10;;
22184;SDS011;11258;52.516;13.318;2022-11-30T16:27:42;114.03;;;42.87;;
22184;SDS011;11258;52.516;13.318;2022-11-30T16:30:09;110.77;;;44.10;;
22184;SDS011;11258;52.516;13.318;2022-11-30T16:32:39;105.77;;;41.90;;
22184;SDS011;11258;52.516;13.318;2022-11-30T16:38:17;100.60;;;40.80;;
22184;SDS011;11258;52.516;13.318;2022-11-30T16:40:43;100.47;;;40.87;;
22184;SDS011;11258;52.516;13.318;2022-11-30T16:43:10;109.17;;;43.37;;